createdAt,value
2022-08-15T00:00:31.043Z,9.10
2022-08-15T00:03:01.987Z,9.20
2022-08-15T00:05:37.802Z,9.00
2022-08-15T00:08:50.652Z,8.98
2022-08-15T00:11:20.845Z,9.80
2022-08-15T00:13:59.957Z,9.00
2022-08-15T00:16:34.976Z,9.30
2022-08-15T00:19:05.595Z,8.85
2022-08-15T00:21:34.856Z,9.55
2022-08-15T00:24:01.922Z,9.40
2022-08-15T00:26:54.901Z,9.40
2022-08-15T00:29:17.649Z,9.18
2022-08-15T00:31:44.933Z,9.43
2022-08-15T00:34:39.294Z,9.55
2022-08-15T00:37:05.244Z,9.85
2022-08-15T00:39:37.656Z,9.52
2022-08-15T00:42:07.953Z,9.60
2022-08-15T00:44:52.873Z,9.48
2022-08-15T00:47:30.271Z,9.70
2022-08-15T00:50:05.775Z,9.10
2022-08-15T00:52:39.914Z,9.88
2022-08-15T00:55:16.014Z,9.30
2022-08-15T00:57:59.820Z,9.52
2022-08-15T01:00:37.910Z,9.27
2022-08-15T01:03:13.474Z,10.13
2022-08-15T01:05:43.469Z,9.23
2022-08-15T01:08:18.785Z,9.73
2022-08-15T01:10:59.994Z,8.70
2022-08-15T01:14:02.503Z,9.40
2022-08-15T01:16:34.948Z,9.27
2022-08-15T01:19:37.791Z,9.27
2022-08-15T01:22:28.161Z,9.48
2022-08-15T01:25:26.344Z,9.40
2022-08-15T01:28:19.324Z,9.65
2022-08-15T01:31:03.017Z,9.27
2022-08-15T01:33:32.908Z,9.45
2022-08-15T01:36:01.725Z,9.55
2022-08-15T01:38:37.913Z,8.93
2022-08-15T01:41:26.509Z,9.43
2022-08-15T01:44:33.440Z,8.63
2022-08-15T01:47:14.120Z,9.18
2022-08-15T01:49:58.399Z,8.80
2022-08-15T01:52:59.247Z,9.07
2022-08-15T01:55:32.317Z,8.90
2022-08-15T01:58:01.371Z,8.50
2022-08-15T02:00:28.806Z,8.43
2022-08-15T02:02:57.585Z,8.77
2022-08-15T02:05:25.029Z,8.60
2022-08-15T02:08:32.535Z,7.88
2022-08-15T02:10:44.775Z,7.00
2022-08-15T02:13:17.505Z,6.90
2022-08-15T02:15:51.871Z,7.38
2022-08-15T02:18:19.862Z,7.43
2022-08-15T02:20:47.905Z,6.57
2022-08-15T02:23:20.160Z,7.10
2022-08-15T02:25:48.463Z,6.88
2022-08-15T02:28:34.024Z,7.10
2022-08-15T02:31:17.571Z,6.95
2022-08-15T02:33:54.114Z,7.03
2022-08-15T02:36:30.673Z,7.05
2022-08-15T02:38:59.718Z,7.97
2022-08-15T02:41:37.420Z,7.53
2022-08-15T02:44:18.927Z,7.00
2022-08-15T02:47:03.009Z,7.28
2022-08-15T02:49:35.485Z,7.00
2022-08-15T02:52:20.544Z,8.40
2022-08-15T02:54:58.785Z,7.00
2022-08-15T02:57:28.705Z,8.20
2022-08-15T02:59:55.449Z,8.25
2022-08-15T03:02:29.834Z,7.03
2022-08-15T03:04:59.580Z,7.47
2022-08-15T03:07:27.431Z,8.38
2022-08-15T03:09:56.703Z,7.70
2022-08-15T03:12:31.251Z,7.50
2022-08-15T03:15:01.514Z,8.73
2022-08-15T03:17:29.797Z,7.47
2022-08-15T03:20:05.115Z,8.55
2022-08-15T03:22:46.841Z,8.63
2022-08-15T03:25:15.847Z,8.52
2022-08-15T03:27:42.907Z,8.95
2022-08-15T03:30:19.434Z,8.77
2022-08-15T03:32:48.473Z,9.10
2022-08-15T03:35:16.018Z,9.18
2022-08-15T03:38:00.015Z,9.70
2022-08-15T03:40:29.258Z,9.32
2022-08-15T03:43:09.337Z,8.93
2022-08-15T03:45:49.949Z,9.25
2022-08-15T03:48:20.920Z,8.93
2022-08-15T03:50:57.104Z,9.82
2022-08-15T03:53:28.459Z,9.38
2022-08-15T03:55:59.349Z,9.32
2022-08-15T03:58:35.359Z,9.18
2022-08-15T04:01:06.372Z,9.50
2022-08-15T04:03:33.983Z,8.52
2022-08-15T04:06:07.789Z,8.52
2022-08-15T04:09:02.994Z,8.88
2022-08-15T04:11:35.247Z,9.05
2022-08-15T04:14:31.598Z,8.88
2022-08-15T04:17:02.759Z,8.55
2022-08-15T04:19:46.640Z,8.48
2022-08-15T04:22:28.719Z,9.07
2022-08-15T04:25:12.581Z,8.80
2022-08-15T04:27:47.749Z,8.65
2022-08-15T04:30:21.397Z,8.50
2022-08-15T04:32:59.254Z,8.55
2022-08-15T04:35:30.024Z,8.80
2022-08-15T04:37:58.697Z,8.90
2022-08-15T04:41:18.608Z,9.20
2022-08-15T04:43:13.373Z,8.38
2022-08-15T04:45:41.368Z,8.52
2022-08-15T04:48:19.607Z,8.93
2022-08-15T04:50:49.418Z,8.35
2022-08-15T04:53:20.879Z,8.73
2022-08-15T04:56:00.414Z,8.82
2022-08-15T04:58:41.498Z,8.43
2022-08-15T05:01:15.868Z,8.02
2022-08-15T05:03:44.285Z,8.63
2022-08-15T05:06:30.727Z,8.70
2022-08-15T05:08:59.591Z,9.02
2022-08-15T05:12:00.437Z,8.32
2022-08-15T05:14:36.317Z,8.30
2022-08-15T05:16:59.876Z,8.35
2022-08-15T05:19:26.674Z,7.90
2022-08-15T05:21:53.377Z,8.55
2022-08-15T05:24:29.284Z,8.40
2022-08-15T05:26:58.151Z,8.18
2022-08-15T05:29:27.091Z,8.68
2022-08-15T05:31:54.895Z,8.68
2022-08-15T05:34:36.979Z,8.20
2022-08-15T05:37:07.889Z,8.57
2022-08-15T05:39:38.201Z,8.10
2022-08-15T05:42:37.639Z,10.57
2022-08-15T05:45:43.058Z,8.50
2022-08-15T05:48:19.977Z,8.57
2022-08-15T05:51:03.861Z,8.63
2022-08-15T05:54:02.687Z,9.38
2022-08-15T05:56:45.377Z,9.38
2022-08-15T05:59:17.240Z,9.55
2022-08-15T06:02:36.826Z,8.90
2022-08-15T06:05:09.248Z,9.18
2022-08-15T06:07:55.704Z,9.05
2022-08-15T06:10:36.337Z,8.65
2022-08-15T06:13:13.264Z,9.20
2022-08-15T06:16:46.756Z,9.18
2022-08-15T06:19:34.342Z,9.00
2022-08-15T06:22:16.552Z,9.57
2022-08-15T06:24:51.940Z,8.98
2022-08-15T06:27:40.388Z,9.45
2022-08-15T06:30:31.021Z,10.57
2022-08-15T06:33:17.004Z,10.57
2022-08-15T06:35:56.853Z,9.57
2022-08-15T06:38:45.874Z,9.85
2022-08-15T06:41:31.384Z,10.35
2022-08-15T06:43:59.936Z,9.70
2022-08-15T06:46:45.815Z,9.90
2022-08-15T06:49:23.734Z,10.30
2022-08-15T06:51:51.345Z,9.90
2022-08-15T06:54:36.774Z,9.32
2022-08-15T06:57:10.171Z,9.63
2022-08-15T06:59:56.308Z,9.32
2022-08-15T07:02:47.379Z,9.55
2022-08-15T07:05:35.485Z,9.52
2022-08-15T07:08:12.781Z,9.25
2022-08-15T07:11:00.695Z,9.38
2022-08-15T07:13:44.808Z,9.93
2022-08-15T07:16:28.904Z,10.15
2022-08-15T07:19:00.759Z,10.80
2022-08-15T07:21:53.504Z,10.20
2022-08-15T07:24:34.806Z,10.55
2022-08-15T07:27:06.853Z,10.02
2022-08-15T07:29:59.877Z,10.05
2022-08-15T07:32:51.889Z,9.30
2022-08-15T07:35:31.160Z,9.18
2022-08-15T07:38:02.281Z,8.95
2022-08-15T07:40:55.980Z,8.82
2022-08-15T07:43:33.689Z,9.32
2022-08-15T07:46:38.253Z,8.80
2022-08-15T07:49:35.554Z,9.10
2022-08-15T07:58:09.248Z,9.15
2022-08-15T08:00:38.796Z,9.00
2022-08-15T08:03:34.259Z,8.65
2022-08-15T08:06:34.589Z,9.35
2022-08-15T08:09:02.941Z,9.10
2022-08-15T08:11:46.198Z,8.88
2022-08-15T08:14:41.092Z,8.70
2022-08-15T08:17:25.293Z,9.50
2022-08-15T08:20:24.026Z,8.75
2022-08-15T08:22:56.397Z,8.82
2022-08-15T08:26:03.708Z,9.38
2022-08-15T08:28:44.084Z,9.25
2022-08-15T08:31:27.939Z,9.10
2022-08-15T08:34:07.909Z,9.75
2022-08-15T08:36:56.301Z,9.30
2022-08-15T08:39:34.083Z,9.00
2022-08-15T08:42:33.810Z,9.70
2022-08-15T08:45:22.685Z,9.68
2022-08-15T08:48:29.411Z,9.52
2022-08-15T08:51:37.089Z,9.60
2022-08-15T08:54:52.792Z,9.60
2022-08-15T08:57:26.731Z,9.73
2022-08-15T09:00:19.280Z,9.65
2022-08-15T09:02:57.257Z,9.65
2022-08-15T09:05:47.065Z,9.70
2022-08-15T09:08:29.924Z,9.50
2022-08-15T09:11:04.076Z,9.40
2022-08-15T09:13:38.596Z,9.95
2022-08-15T09:16:20.308Z,9.65
2022-08-15T09:19:17.606Z,9.85
2022-08-15T09:21:46.101Z,10.25
2022-08-15T09:24:36.661Z,9.80
2022-08-15T09:27:18.062Z,10.48
2022-08-15T09:29:56.521Z,10.43
2022-08-15T09:32:31.496Z,9.77
2022-08-15T09:35:52.334Z,10.13
2022-08-15T09:38:50.801Z,10.38
2022-08-15T09:41:54.303Z,10.45
2022-08-15T09:44:36.588Z,10.00
2022-08-15T09:47:58.958Z,10.43
2022-08-15T09:51:00.023Z,10.48
2022-08-15T09:54:29.369Z,9.85
2022-08-15T09:57:32.026Z,10.07
2022-08-15T10:00:20.669Z,10.55
2022-08-15T10:02:52.194Z,10.15
2022-08-15T10:05:38.333Z,10.27
2022-08-15T10:08:07.419Z,10.40
2022-08-15T10:10:35.454Z,10.35
2022-08-15T10:13:08.852Z,10.63
2022-08-15T10:15:51.697Z,10.48
2022-08-15T10:18:27.162Z,10.50
2022-08-15T10:20:57.187Z,10.68
2022-08-15T10:23:58.802Z,10.25
2022-08-15T10:26:35.849Z,9.88
2022-08-15T10:29:10.322Z,10.07
2022-08-15T10:32:37.930Z,10.40
2022-08-15T10:35:05.877Z,10.38
2022-08-15T10:37:55.547Z,10.13
2022-08-15T10:40:42.114Z,9.90
2022-08-15T10:43:09.320Z,9.60
2022-08-15T10:46:09.973Z,9.75
2022-08-15T10:49:14.097Z,9.68
2022-08-15T10:52:29.397Z,9.25
2022-08-15T10:55:10.548Z,9.73
2022-08-15T10:57:49.612Z,10.00
2022-08-15T11:00:51.391Z,9.60
2022-08-15T11:04:58.326Z,9.43
2022-08-15T11:06:32.076Z,9.40
2022-08-15T11:09:09.577Z,9.35
2022-08-15T11:11:40.068Z,9.05
2022-08-15T11:14:29.549Z,9.85
2022-08-15T11:16:59.845Z,9.20
2022-08-15T11:20:03.430Z,9.35
2022-08-15T11:22:34.940Z,9.10
2022-08-15T11:25:10.059Z,9.13
2022-08-15T11:27:37.265Z,9.27
2022-08-15T11:30:21.185Z,9.15
2022-08-15T11:32:54.431Z,9.20
2022-08-15T11:35:32.466Z,9.20
2022-08-15T11:38:19.723Z,10.25
2022-08-15T11:40:55.073Z,9.63
2022-08-15T11:43:23.126Z,9.38
2022-08-15T11:45:53.653Z,9.40
2022-08-15T11:48:34.816Z,9.50
2022-08-15T11:51:23.995Z,9.75
2022-08-15T11:54:14.225Z,9.65
2022-08-15T11:56:58.194Z,9.40
2022-08-15T11:59:39.785Z,9.98
2022-08-15T12:02:32.375Z,9.73
2022-08-15T12:05:43.015Z,9.70
2022-08-15T12:08:27.804Z,9.50
2022-08-15T12:11:07.352Z,8.35
2022-08-15T12:13:36.273Z,9.30
2022-08-15T12:16:26.684Z,9.18
2022-08-15T12:18:51.816Z,9.38
2022-08-15T12:21:22.037Z,8.80
2022-08-15T12:23:56.282Z,9.15
2022-08-15T12:26:40.338Z,9.02
2022-08-15T12:29:15.646Z,9.10
2022-08-15T12:31:46.795Z,9.23
2022-08-15T12:34:27.819Z,9.32
2022-08-15T12:37:03.801Z,9.43
2022-08-15T12:39:34.343Z,9.48
2022-08-15T12:42:48.463Z,9.38
2022-08-15T12:44:51.354Z,9.27
2022-08-15T12:47:19.264Z,9.50
2022-08-15T12:49:48.019Z,9.27
2022-08-15T12:52:18.538Z,9.77
2022-08-15T12:54:48.990Z,9.57
2022-08-15T12:57:19.289Z,9.32
2022-08-15T12:59:49.880Z,9.65
2022-08-15T13:02:46.939Z,9.45
2022-08-15T13:05:12.635Z,10.38
2022-08-15T13:08:06.482Z,9.95
2022-08-15T13:11:01.033Z,9.10
2022-08-15T13:13:15.650Z,9.20
2022-08-15T13:15:42.595Z,10.27
2022-08-15T13:18:19.214Z,9.82
2022-08-15T13:21:08.082Z,9.48
2022-08-15T13:24:11.117Z,9.90
2022-08-15T13:26:30.330Z,10.02
2022-08-15T13:29:01.469Z,10.15
2022-08-15T13:31:29.767Z,9.80
2022-08-15T13:33:59.575Z,9.38
2022-08-15T13:36:30.707Z,10.00
2022-08-15T13:39:01.124Z,10.20
2022-08-15T13:41:48.552Z,10.25
2022-08-15T13:44:30.397Z,10.02
2022-08-15T13:46:59.431Z,10.18
2022-08-15T13:49:30.455Z,10.00
2022-08-15T13:52:24.893Z,9.95
2022-08-15T13:54:49.266Z,9.50
2022-08-15T13:57:18.352Z,10.50
2022-08-15T13:59:47.394Z,9.15
2022-08-15T14:02:36.350Z,9.00
2022-08-15T14:05:04.160Z,8.38
2022-08-15T14:07:50.724Z,8.77
2022-08-15T14:11:00.799Z,8.10
2022-08-15T14:13:17.954Z,7.60
2022-08-15T14:16:26.829Z,6.82
2022-08-15T14:18:50.226Z,9.10
2022-08-15T14:21:27.052Z,8.23
2022-08-15T14:23:56.627Z,9.05
2022-08-15T14:27:12.712Z,12.93
2022-08-15T14:29:31.858Z,9.02
2022-08-15T14:32:52.317Z,9.38
2022-08-15T14:40:40.960Z,9.60
2022-08-15T14:43:08.970Z,8.77
2022-08-15T14:46:31.479Z,8.98
2022-08-15T14:48:48.564Z,8.57
2022-08-15T14:52:03.888Z,8.02
2022-08-15T14:54:40.205Z,8.45
2022-08-15T14:56:54.282Z,8.93
2022-08-15T14:59:23.781Z,8.55
2022-08-15T15:01:58.844Z,8.68
2022-08-15T15:04:27.902Z,9.25
2022-08-15T15:07:01.523Z,9.02
2022-08-15T15:09:29.412Z,8.98
2022-08-15T15:11:58.292Z,9.38
2022-08-15T15:14:25.963Z,8.50
2022-08-15T15:16:56.381Z,8.77
2022-08-15T15:19:39.495Z,9.05
2022-08-15T15:22:10.112Z,8.60
2022-08-15T15:24:43.568Z,8.90
2022-08-15T15:27:17.383Z,8.88
2022-08-15T15:29:50.626Z,8.82
2022-08-15T15:32:30.878Z,8.75
2022-08-15T15:35:05.788Z,9.43
2022-08-15T15:37:34.357Z,9.02
2022-08-15T15:40:02.331Z,9.10
2022-08-15T15:42:32.213Z,9.30
2022-08-15T15:45:04.105Z,9.27
2022-08-15T15:47:39.900Z,9.32
2022-08-15T15:50:26.554Z,9.30
2022-08-15T15:53:01.367Z,9.05
2022-08-15T15:55:29.026Z,9.25
2022-08-15T15:58:02.765Z,8.68
2022-08-15T16:00:46.131Z,9.27
2022-08-15T16:03:15.821Z,10.57
2022-08-15T16:06:58.921Z,9.43
2022-08-15T16:08:47.202Z,9.85
2022-08-15T16:11:25.917Z,9.10
2022-08-15T16:14:05.179Z,9.10
2022-08-15T16:16:44.164Z,8.75
2022-08-15T16:19:14.925Z,8.77
2022-08-15T16:22:19.965Z,8.73
2022-08-15T16:25:05.077Z,8.90
2022-08-15T16:27:41.903Z,8.50
2022-08-15T16:30:32.173Z,9.20
2022-08-15T16:33:14.212Z,8.63
2022-08-15T16:35:46.422Z,8.70
2022-08-15T16:39:05.106Z,8.48
2022-08-15T16:41:50.416Z,8.60
2022-08-15T16:44:37.599Z,9.05
2022-08-15T16:47:25.870Z,8.18
2022-08-15T16:50:13.224Z,8.20
2022-08-15T16:53:01.146Z,8.48
2022-08-15T16:55:51.876Z,8.80
2022-08-15T16:58:36.647Z,7.68
2022-08-15T17:01:39.627Z,7.65
2022-08-15T17:04:29.648Z,7.75
2022-08-15T17:07:23.161Z,8.10
2022-08-15T17:10:15.673Z,7.90
2022-08-15T17:12:54.785Z,8.52
2022-08-15T17:15:33.541Z,8.15
2022-08-15T17:18:06.634Z,8.60
2022-08-15T17:20:41.763Z,8.43
2022-08-15T17:23:21.111Z,7.90
2022-08-15T17:27:04.606Z,8.30
2022-08-15T17:29:01.954Z,8.68
2022-08-15T17:31:35.240Z,8.77
2022-08-15T17:34:41.118Z,8.63
2022-08-15T17:36:56.295Z,8.35
2022-08-15T17:39:28.875Z,8.40
2022-08-15T17:41:57.953Z,8.27
2022-08-15T17:44:56.924Z,8.32
2022-08-15T17:47:33.417Z,8.15
2022-08-15T17:50:48.059Z,8.38
2022-08-15T17:53:18.671Z,8.60
2022-08-15T17:55:57.764Z,8.05
2022-08-15T17:58:36.436Z,8.57
2022-08-15T18:01:04.982Z,9.13
2022-08-15T18:03:31.881Z,8.75
2022-08-15T18:06:04.334Z,8.90
2022-08-15T18:08:54.085Z,8.65
2022-08-15T18:11:34.412Z,8.90
2022-08-15T18:14:39.856Z,8.68
2022-08-15T18:17:20.247Z,8.98
2022-08-15T18:20:03.555Z,8.52
2022-08-15T18:22:31.106Z,8.35
2022-08-15T18:25:02.355Z,8.85
2022-08-15T18:27:54.185Z,9.40
2022-08-15T18:30:28.530Z,9.63
2022-08-15T18:33:01.143Z,8.80
2022-08-15T18:35:38.894Z,8.90
2022-08-15T18:38:16.428Z,8.73
2022-08-15T18:41:07.352Z,8.90
2022-08-15T18:43:53.659Z,8.80
2022-08-15T18:46:27.274Z,8.68
2022-08-15T18:49:17.189Z,8.90
2022-08-15T18:51:56.465Z,8.38
2022-08-15T18:54:48.715Z,9.00
2022-08-15T18:57:45.344Z,8.50
2022-08-15T19:00:32.425Z,8.70
2022-08-15T19:03:06.773Z,8.75
2022-08-15T19:05:48.995Z,8.82
2022-08-15T19:08:37.410Z,8.50
2022-08-15T19:11:14.984Z,8.77
2022-08-15T19:13:57.361Z,8.82
2022-08-15T19:19:46.344Z,8.82
2022-08-15T19:22:16.089Z,8.63
2022-08-15T19:24:27.149Z,8.60
2022-08-15T19:24:48.018Z,8.50
2022-08-15T19:27:27.589Z,8.45
2022-08-15T19:30:19.969Z,8.25
2022-08-15T19:33:09.151Z,8.48
2022-08-15T19:35:45.048Z,8.48
2022-08-15T19:38:50.955Z,8.77
2022-08-15T19:41:24.500Z,8.38
2022-08-15T19:44:07.197Z,9.13
2022-08-15T19:46:50.030Z,8.10
2022-08-15T19:50:04.532Z,8.25
2022-08-15T19:52:45.509Z,8.70
2022-08-15T19:55:41.310Z,7.97
2022-08-15T19:58:41.955Z,8.20
2022-08-15T20:02:01.925Z,7.95
2022-08-15T20:04:53.276Z,7.70
2022-08-15T20:07:45.922Z,8.50
2022-08-15T20:10:30.972Z,8.43
2022-08-15T20:13:40.885Z,8.55
2022-08-15T20:16:55.197Z,8.73
2022-08-15T20:19:42.380Z,8.70
2022-08-15T20:22:34.966Z,8.40
2022-08-15T20:25:24.435Z,8.57
2022-08-15T20:27:54.711Z,9.10
2022-08-15T20:30:37.460Z,8.77
2022-08-15T20:33:22.290Z,8.63
2022-08-15T20:35:58.980Z,8.50
2022-08-15T20:38:53.263Z,8.45
2022-08-15T20:41:39.271Z,9.07
2022-08-15T20:44:31.844Z,8.75
2022-08-15T20:46:59.828Z,8.68
2022-08-15T20:49:28.713Z,8.27
2022-08-15T20:52:37.945Z,8.52
2022-08-15T20:54:49.511Z,9.30
2022-08-15T20:57:25.577Z,9.15
2022-08-15T20:59:58.586Z,8.52
2022-08-15T21:02:46.937Z,8.75
2022-08-15T21:05:17.292Z,8.27
2022-08-15T21:07:56.370Z,8.00
2022-08-15T21:10:41.554Z,8.80
2022-08-15T21:13:59.350Z,8.80
2022-08-15T21:16:49.357Z,8.93
2022-08-15T21:19:49.395Z,9.02
2022-08-15T21:22:42.616Z,8.55
2022-08-15T21:25:31.614Z,8.85
2022-08-15T21:28:09.852Z,8.05
2022-08-15T21:31:00.589Z,8.55
2022-08-15T21:33:41.287Z,7.68
2022-08-15T21:36:35.163Z,7.50
2022-08-15T21:39:07.237Z,8.30
2022-08-15T21:41:54.739Z,7.97
2022-08-15T21:45:02.967Z,8.50
2022-08-15T21:47:48.256Z,7.60
2022-08-15T21:50:37.146Z,7.70
2022-08-15T21:53:26.899Z,8.05
2022-08-15T21:55:55.928Z,7.55
2022-08-15T21:59:00.806Z,8.13
2022-08-15T22:01:55.188Z,8.00
2022-08-15T22:04:30.456Z,7.82
2022-08-15T22:07:04.186Z,8.07
2022-08-15T22:09:37.036Z,7.80
2022-08-15T22:12:13.486Z,8.30
2022-08-15T22:14:44.529Z,8.52
2022-08-15T22:17:13.136Z,7.80
2022-08-15T22:19:41.718Z,7.88
2022-08-15T22:22:18.761Z,7.97
2022-08-15T22:24:50.113Z,8.35
2022-08-15T22:27:22.846Z,8.18
2022-08-15T22:29:51.078Z,7.88
2022-08-15T22:32:31.534Z,7.57
2022-08-15T22:35:01.322Z,8.15
2022-08-15T22:37:34.192Z,7.95
2022-08-15T22:40:06.609Z,8.93
2022-08-15T22:42:43.059Z,8.80
2022-08-15T22:45:17.987Z,8.68
2022-08-15T22:47:45.867Z,8.13
2022-08-15T22:50:24.692Z,9.10
2022-08-15T22:52:54.015Z,8.70
2022-08-15T22:55:34.760Z,8.90
2022-08-15T22:58:10.386Z,8.30
2022-08-15T23:00:45.298Z,8.38
2022-08-15T23:03:14.498Z,10.15
2022-08-15T23:05:47.471Z,9.65
2022-08-15T23:08:22.812Z,10.20
2022-08-15T23:10:57.643Z,10.27
2022-08-15T23:13:59.464Z,10.05
2022-08-15T23:16:37.033Z,9.70
2022-08-15T23:19:57.526Z,10.18
2022-08-15T23:22:32.517Z,9.68
2022-08-15T23:25:02.759Z,10.32
2022-08-15T23:27:35.269Z,8.93
2022-08-15T23:30:31.436Z,10.10
2022-08-15T23:32:57.773Z,10.18
2022-08-15T23:35:30.734Z,9.68
2022-08-15T23:38:01.008Z,9.63
2022-08-15T23:40:48.995Z,9.30
2022-08-15T23:43:18.031Z,9.98
2022-08-15T23:45:45.498Z,9.02
2022-08-15T23:48:14.006Z,9.77
2022-08-15T23:50:56.471Z,9.73
2022-08-15T23:53:31.484Z,9.75
2022-08-15T23:56:32.437Z,9.95
2022-08-15T23:58:53.702Z,9.93
